sensor_id;sensor_type;location;lat;lon;timestamp;temperature;humidity
78788;DHT22;68131;52.508;5.502;2024-03-25T00:00:21;8.40;72.90
78788;DHT22;68131;52.508;5.502;2024-03-25T00:02:50;8.40;73.00
78788;DHT22;68131;52.508;5.502;2024-03-25T00:05:17;8.40;73.10
78788;DHT22;68131;52.508;5.502;2024-03-25T00:07:44;8.30;73.00
78788;DHT22;68131;52.508;5.502;2024-03-25T00:10:10;8.30;73.00
78788;DHT22;68131;52.508;5.502;2024-03-25T00:12:37;8.30;73.00
78788;DHT22;68131;52.508;5.502;2024-03-25T00:15:04;8.30;73.10
78788;DHT22;68131;52.508;5.502;2024-03-25T00:17:31;8.30;73.10
78788;DHT22;68131;52.508;5.502;2024-03-25T00:20:00;8.30;73.10
78788;DHT22;68131;52.508;5.502;2024-03-25T00:22:26;8.30;73.10
78788;DHT22;68131;52.508;5.502;2024-03-25T00:24:56;8.30;73.10
78788;DHT22;68131;52.508;5.502;2024-03-25T00:27:23;8.40;73.10
78788;DHT22;68131;52.508;5.502;2024-03-25T00:29:50;8.40;73.00
78788;DHT22;68131;52.508;5.502;2024-03-25T00:32:18;8.40;73.00
78788;DHT22;68131;52.508;5.502;2024-03-25T00:34:45;8.40;73.00
78788;DHT22;68131;52.508;5.502;2024-03-25T00:37:14;8.40;73.00
78788;DHT22;68131;52.508;5.502;2024-03-25T00:39:41;8.40;72.90
78788;DHT22;68131;52.508;5.502;2024-03-25T00:42:07;8.50;73.00
78788;DHT22;68131;52.508;5.502;2024-03-25T00:44:40;8.50;72.90
78788;DHT22;68131;52.508;5.502;2024-03-25T00:47:07;8.50;72.90
78788;DHT22;68131;52.508;5.502;2024-03-25T00:49:34;8.60;72.80
78788;DHT22;68131;52.508;5.502;2024-03-25T00:52:00;8.60;72.70
78788;DHT22;68131;52.508;5.502;2024-03-25T00:54:32;8.60;72.90
78788;DHT22;68131;52.508;5.502;2024-03-25T00:56:59;8.60;72.80
78788;DHT22;68131;52.508;5.502;2024-03-25T00:59:25;8.60;72.80
78788;DHT22;68131;52.508;5.502;2024-03-25T01:01:52;8.70;72.70
78788;DHT22;68131;52.508;5.502;2024-03-25T01:04:20;8.70;72.70
78788;DHT22;68131;52.508;5.502;2024-03-25T01:06:46;8.70;72.70
78788;DHT22;68131;52.508;5.502;2024-03-25T01:09:13;8.70;72.70
78788;DHT22;68131;52.508;5.502;2024-03-25T01:11:49;8.70;72.80
78788;DHT22;68131;52.508;5.502;2024-03-25T01:14:16;8.80;72.80
78788;DHT22;68131;52.508;5.502;2024-03-25T01:16:42;8.80;72.80
78788;DHT22;68131;52.508;5.502;2024-03-25T01:19:09;8.80;72.80
78788;DHT22;68131;52.508;5.502;2024-03-25T01:21:35;8.90;72.70
78788;DHT22;68131;52.508;5.502;2024-03-25T01:24:02;8.90;72.80
78788;DHT22;68131;52.508;5.502;2024-03-25T01:26:29;8.90;72.70
78788;DHT22;68131;52.508;5.502;2024-03-25T01:28:58;8.90;72.60
78788;DHT22;68131;52.508;5.502;2024-03-25T01:31:26;8.90;72.60
78788;DHT22;68131;52.508;5.502;2024-03-25T01:33:56;8.90;72.50
78788;DHT22;68131;52.508;5.502;2024-03-25T01:36:23;8.80;72.50
78788;DHT22;68131;52.508;5.502;2024-03-25T01:38:50;8.80;72.50
78788;DHT22;68131;52.508;5.502;2024-03-25T01:41:20;8.70;72.50
78788;DHT22;68131;52.508;5.502;2024-03-25T01:43:49;8.70;72.60
78788;DHT22;68131;52.508;5.502;2024-03-25T01:46:18;8.70;72.50
78788;DHT22;68131;52.508;5.502;2024-03-25T01:48:48;8.60;72.50
78788;DHT22;68131;52.508;5.502;2024-03-25T01:51:17;8.50;72.60
78788;DHT22;68131;52.508;5.502;2024-03-25T01:53:45;8.50;72.70
78788;DHT22;68131;52.508;5.502;2024-03-25T01:56:14;8.40;72.60
78788;DHT22;68131;52.508;5.502;2024-03-25T01:58:41;8.40;72.80
78788;DHT22;68131;52.508;5.502;2024-03-25T02:01:08;8.40;72.80
78788;DHT22;68131;52.508;5.502;2024-03-25T02:03:37;8.40;72.80
78788;DHT22;68131;52.508;5.502;2024-03-25T02:06:08;8.40;72.70
78788;DHT22;68131;52.508;5.502;2024-03-25T02:08:36;8.40;72.50
78788;DHT22;68131;52.508;5.502;2024-03-25T02:11:03;8.40;72.60
78788;DHT22;68131;52.508;5.502;2024-03-25T02:13:30;8.40;72.60
78788;DHT22;68131;52.508;5.502;2024-03-25T02:15:56;8.40;72.50
78788;DHT22;68131;52.508;5.502;2024-03-25T02:18:23;8.40;72.50
78788;DHT22;68131;52.508;5.502;2024-03-25T02:20:52;8.40;72.40
78788;DHT22;68131;52.508;5.502;2024-03-25T02:23:19;8.40;72.50
78788;DHT22;68131;52.508;5.502;2024-03-25T02:25:52;8.30;72.40
78788;DHT22;68131;52.508;5.502;2024-03-25T02:28:19;8.30;72.40
78788;DHT22;68131;52.508;5.502;2024-03-25T02:30:48;8.30;72.40
78788;DHT22;68131;52.508;5.502;2024-03-25T02:33:15;8.30;72.30
78788;DHT22;68131;52.508;5.502;2024-03-25T02:35:43;8.30;72.40
78788;DHT22;68131;52.508;5.502;2024-03-25T02:38:10;8.30;72.40
78788;DHT22;68131;52.508;5.502;2024-03-25T02:40:37;8.30;72.20
78788;DHT22;68131;52.508;5.502;2024-03-25T02:43:07;8.30;72.30
78788;DHT22;68131;52.508;5.502;2024-03-25T02:45:36;8.40;72.10
78788;DHT22;68131;52.508;5.502;2024-03-25T02:48:04;8.40;72.30
78788;DHT22;68131;52.508;5.502;2024-03-25T02:50:31;8.40;72.20
78788;DHT22;68131;52.508;5.502;2024-03-25T02:53:00;8.40;72.10
78788;DHT22;68131;52.508;5.502;2024-03-25T02:55:26;8.40;72.10
78788;DHT22;68131;52.508;5.502;2024-03-25T02:57:53;8.50;72.10
78788;DHT22;68131;52.508;5.502;2024-03-25T03:00:22;8.50;72.10
78788;DHT22;68131;52.508;5.502;2024-03-25T03:02:52;8.50;72.10
78788;DHT22;68131;52.508;5.502;2024-03-25T03:05:18;8.50;72.10
78788;DHT22;68131;52.508;5.502;2024-03-25T03:07:46;8.50;72.10
78788;DHT22;68131;52.508;5.502;2024-03-25T03:10:13;8.50;72.10
78788;DHT22;68131;52.508;5.502;2024-03-25T03:12:40;8.50;72.20
78788;DHT22;68131;52.508;5.502;2024-03-25T03:15:07;8.50;72.20
78788;DHT22;68131;52.508;5.502;2024-03-25T03:17:37;8.50;72.10
78788;DHT22;68131;52.508;5.502;2024-03-25T03:20:04;8.50;72.30
78788;DHT22;68131;52.508;5.502;2024-03-25T03:22:35;8.50;72.30
78788;DHT22;68131;52.508;5.502;2024-03-25T03:25:01;8.50;72.40
78788;DHT22;68131;52.508;5.502;2024-03-25T03:27:28;8.60;72.40
78788;DHT22;68131;52.508;5.502;2024-03-25T03:29:54;8.60;72.40
78788;DHT22;68131;52.508;5.502;2024-03-25T03:32:25;8.60;72.50
78788;DHT22;68131;52.508;5.502;2024-03-25T03:34:54;8.60;72.50
78788;DHT22;68131;52.508;5.502;2024-03-25T03:37:22;8.60;72.50
78788;DHT22;68131;52.508;5.502;2024-03-25T03:39:49;8.60;72.50
78788;DHT22;68131;52.508;5.502;2024-03-25T03:42:19;8.60;72.50
78788;DHT22;68131;52.508;5.502;2024-03-25T03:44:45;8.60;72.50
78788;DHT22;68131;52.508;5.502;2024-03-25T03:47:13;8.50;72.50
78788;DHT22;68131;52.508;5.502;2024-03-25T03:49:40;8.60;72.50
78788;DHT22;68131;52.508;5.502;2024-03-25T03:52:13;8.50;72.50
78788;DHT22;68131;52.508;5.502;2024-03-25T03:54:40;8.50;72.60
78788;DHT22;68131;52.508;5.502;2024-03-25T03:57:06;8.50;72.70
78788;DHT22;68131;52.508;5.502;2024-03-25T03:59:33;8.50;72.70
78788;DHT22;68131;52.508;5.502;2024-03-25T04:01:59;8.50;72.70
78788;DHT22;68131;52.508;5.502;2024-03-25T04:04:26;8.40;72.80
78788;DHT22;68131;52.508;5.502;2024-03-25T04:06:53;8.40;72.90
78788;DHT22;68131;52.508;5.502;2024-03-25T04:09:22;8.40;72.90
78788;DHT22;68131;52.508;5.502;2024-03-25T04:11:49;8.50;72.90
78788;DHT22;68131;52.508;5.502;2024-03-25T04:14:15;8.50;72.80
78788;DHT22;68131;52.508;5.502;2024-03-25T04:16:44;8.50;72.80
78788;DHT22;68131;52.508;5.502;2024-03-25T04:19:11;8.50;72.70
78788;DHT22;68131;52.508;5.502;2024-03-25T04:21:37;8.50;72.70
78788;DHT22;68131;52.508;5.502;2024-03-25T04:24:04;8.50;72.70
78788;DHT22;68131;52.508;5.502;2024-03-25T04:26:34;8.50;72.60
78788;DHT22;68131;52.508;5.502;2024-03-25T04:29:00;8.50;72.70
78788;DHT22;68131;52.508;5.502;2024-03-25T04:31:27;8.50;72.80
78788;DHT22;68131;52.508;5.502;2024-03-25T04:33:57;8.50;72.80
78788;DHT22;68131;52.508;5.502;2024-03-25T04:36:24;8.50;72.80
78788;DHT22;68131;52.508;5.502;2024-03-25T04:38:53;8.50;72.80
78788;DHT22;68131;52.508;5.502;2024-03-25T04:41:20;8.40;72.80
78788;DHT22;68131;52.508;5.502;2024-03-25T04:43:51;8.40;72.80
78788;DHT22;68131;52.508;5.502;2024-03-25T04:46:18;8.40;72.80
78788;DHT22;68131;52.508;5.502;2024-03-25T04:48:45;8.40;72.70
78788;DHT22;68131;52.508;5.502;2024-03-25T04:51:11;8.40;72.80
78788;DHT22;68131;52.508;5.502;2024-03-25T04:53:38;8.40;72.90
78788;DHT22;68131;52.508;5.502;2024-03-25T04:56:05;8.30;73.00
78788;DHT22;68131;52.508;5.502;2024-03-25T04:58:33;8.30;73.00
78788;DHT22;68131;52.508;5.502;2024-03-25T05:01:02;8.30;73.00
78788;DHT22;68131;52.508;5.502;2024-03-25T05:03:29;8.30;73.00
78788;DHT22;68131;52.508;5.502;2024-03-25T05:05:55;8.30;72.90
78788;DHT22;68131;52.508;5.502;2024-03-25T05:08:22;8.30;72.90
78788;DHT22;68131;52.508;5.502;2024-03-25T05:10:49;8.30;72.90
78788;DHT22;68131;52.508;5.502;2024-03-25T05:13:15;8.30;72.80
78788;DHT22;68131;52.508;5.502;2024-03-25T05:15:49;8.30;72.70
78788;DHT22;68131;52.508;5.502;2024-03-25T05:18:19;8.20;72.70
78788;DHT22;68131;52.508;5.502;2024-03-25T05:20:45;8.20;72.80
78788;DHT22;68131;52.508;5.502;2024-03-25T05:23:12;8.20;72.80
78788;DHT22;68131;52.508;5.502;2024-03-25T05:25:39;8.10;72.70
78788;DHT22;68131;52.508;5.502;2024-03-25T05:28:05;8.10;72.70
78788;DHT22;68131;52.508;5.502;2024-03-25T05:30:34;8.10;72.80
78788;DHT22;68131;52.508;5.502;2024-03-25T05:33:01;8.00;72.80
78788;DHT22;68131;52.508;5.502;2024-03-25T05:35:33;8.00;72.70
78788;DHT22;68131;52.508;5.502;2024-03-25T05:37:59;7.90;72.80
78788;DHT22;68131;52.508;5.502;2024-03-25T05:40:26;7.90;72.50
78788;DHT22;68131;52.508;5.502;2024-03-25T05:42:53;7.90;72.50
78788;DHT22;68131;52.508;5.502;2024-03-25T05:45:20;7.80;72.70
78788;DHT22;68131;52.508;5.502;2024-03-25T05:47:46;7.90;72.60
78788;DHT22;68131;52.508;5.502;2024-03-25T05:50:13;7.90;72.60
78788;DHT22;68131;52.508;5.502;2024-03-25T05:52:42;7.90;72.50
78788;DHT22;68131;52.508;5.502;2024-03-25T05:55:09;8.00;72.50
78788;DHT22;68131;52.508;5.502;2024-03-25T05:57:36;8.20;72.30
78788;DHT22;68131;52.508;5.502;2024-03-25T06:00:07;8.20;72.00
78788;DHT22;68131;52.508;5.502;2024-03-25T06:02:38;8.10;72.00
78788;DHT22;68131;52.508;5.502;2024-03-25T06:05:05;8.10;72.00
78788;DHT22;68131;52.508;5.502;2024-03-25T06:07:32;8.00;72.10
78788;DHT22;68131;52.508;5.502;2024-03-25T06:10:01;8.00;72.20
78788;DHT22;68131;52.508;5.502;2024-03-25T06:12:28;8.00;72.60
78788;DHT22;68131;52.508;5.502;2024-03-25T06:14:54;8.40;72.40
78788;DHT22;68131;52.508;5.502;2024-03-25T06:17:21;8.60;71.60
78788;DHT22;68131;52.508;5.502;2024-03-25T06:19:47;8.80;72.00
78788;DHT22;68131;52.508;5.502;2024-03-25T06:22:14;9.60;71.70
78788;DHT22;68131;52.508;5.502;2024-03-25T06:24:42;10.80;70.10
78788;DHT22;68131;52.508;5.502;2024-03-25T06:27:11;11.80;68.40
78788;DHT22;68131;52.508;5.502;2024-03-25T06:29:40;12.70;66.40
78788;DHT22;68131;52.508;5.502;2024-03-25T06:32:06;12.90;65.40
78788;DHT22;68131;52.508;5.502;2024-03-25T06:34:48;12.80;65.20
78788;DHT22;68131;52.508;5.502;2024-03-25T06:37:16;12.40;65.60
78788;DHT22;68131;52.508;5.502;2024-03-25T06:39:43;12.10;66.30
78788;DHT22;68131;52.508;5.502;2024-03-25T06:42:15;12.20;66.80
78788;DHT22;68131;52.508;5.502;2024-03-25T06:44:42;12.40;66.70
78788;DHT22;68131;52.508;5.502;2024-03-25T06:47:08;12.60;66.40
78788;DHT22;68131;52.508;5.502;2024-03-25T06:49:35;12.80;65.80
78788;DHT22;68131;52.508;5.502;2024-03-25T06:52:02;12.90;65.30
78788;DHT22;68131;52.508;5.502;2024-03-25T06:54:30;13.00;64.90
78788;DHT22;68131;52.508;5.502;2024-03-25T06:56:58;13.10;64.70
78788;DHT22;68131;52.508;5.502;2024-03-25T06:59:27;13.20;64.50
78788;DHT22;68131;52.508;5.502;2024-03-25T07:01:54;13.40;64.40
78788;DHT22;68131;52.508;5.502;2024-03-25T07:04:20;13.40;64.10
78788;DHT22;68131;52.508;5.502;2024-03-25T07:06:48;13.50;63.80
78788;DHT22;68131;52.508;5.502;2024-03-25T07:09:14;13.60;63.30
78788;DHT22;68131;52.508;5.502;2024-03-25T07:11:42;13.70;63.30
78788;DHT22;68131;52.508;5.502;2024-03-25T07:14:09;13.80;62.90
78788;DHT22;68131;52.508;5.502;2024-03-25T07:16:40;13.80;62.80
78788;DHT22;68131;52.508;5.502;2024-03-25T07:19:07;14.00;62.80
78788;DHT22;68131;52.508;5.502;2024-03-25T07:21:33;14.00;62.50
78788;DHT22;68131;52.508;5.502;2024-03-25T07:24:00;14.10;62.50
78788;DHT22;68131;52.508;5.502;2024-03-25T07:26:32;14.10;61.60
78788;DHT22;68131;52.508;5.502;2024-03-25T07:28:58;14.10;61.50
78788;DHT22;68131;52.508;5.502;2024-03-25T07:31:27;14.10;61.30
78788;DHT22;68131;52.508;5.502;2024-03-25T07:33:56;14.10;61.10
78788;DHT22;68131;52.508;5.502;2024-03-25T07:36:23;14.10;61.50
78788;DHT22;68131;52.508;5.502;2024-03-25T07:38:49;14.20;61.70
78788;DHT22;68131;52.508;5.502;2024-03-25T07:41:16;14.20;61.50
78788;DHT22;68131;52.508;5.502;2024-03-25T07:43:42;14.20;61.60
78788;DHT22;68131;52.508;5.502;2024-03-25T07:46:10;14.40;61.40
78788;DHT22;68131;52.508;5.502;2024-03-25T07:48:38;14.50;61.30
78788;DHT22;68131;52.508;5.502;2024-03-25T07:51:07;14.60;61.30
78788;DHT22;68131;52.508;5.502;2024-03-25T07:53:34;14.50;60.90
78788;DHT22;68131;52.508;5.502;2024-03-25T07:56:00;14.40;61.00
78788;DHT22;68131;52.508;5.502;2024-03-25T07:58:27;14.20;61.50
78788;DHT22;68131;52.508;5.502;2024-03-25T08:00:56;14.10;61.60
78788;DHT22;68131;52.508;5.502;2024-03-25T08:03:23;13.90;62.00
78788;DHT22;68131;52.508;5.502;2024-03-25T08:05:50;13.80;62.40
78788;DHT22;68131;52.508;5.502;2024-03-25T08:08:21;13.70;62.60
78788;DHT22;68131;52.508;5.502;2024-03-25T08:10:50;13.80;62.90
78788;DHT22;68131;52.508;5.502;2024-03-25T08:13:16;14.00;62.20
78788;DHT22;68131;52.508;5.502;2024-03-25T08:15:43;14.00;61.90
78788;DHT22;68131;52.508;5.502;2024-03-25T08:18:09;14.00;61.60
78788;DHT22;68131;52.508;5.502;2024-03-25T08:20:37;13.80;61.20
78788;DHT22;68131;52.508;5.502;2024-03-25T08:23:04;13.60;61.20
78788;DHT22;68131;52.508;5.502;2024-03-25T08:25:33;13.50;62.00
78788;DHT22;68131;52.508;5.502;2024-03-25T08:27:59;13.40;61.90
78788;DHT22;68131;52.508;5.502;2024-03-25T08:30:31;13.20;61.20
78788;DHT22;68131;52.508;5.502;2024-03-25T08:32:58;13.00;62.00
78788;DHT22;68131;52.508;5.502;2024-03-25T08:35:25;13.00;62.40
78788;DHT22;68131;52.508;5.502;2024-03-25T08:37:51;13.00;62.70
78788;DHT22;68131;52.508;5.502;2024-03-25T08:40:21;13.10;62.90
78788;DHT22;68131;52.508;5.502;2024-03-25T08:42:50;13.20;63.00
78788;DHT22;68131;52.508;5.502;2024-03-25T08:45:17;13.40;63.10
78788;DHT22;68131;52.508;5.502;2024-03-25T08:47:43;13.50;63.00
78788;DHT22;68131;52.508;5.502;2024-03-25T08:50:10;13.60;62.50
78788;DHT22;68131;52.508;5.502;2024-03-25T08:52:37;13.70;61.60
78788;DHT22;68131;52.508;5.502;2024-03-25T08:55:05;13.60;61.70
78788;DHT22;68131;52.508;5.502;2024-03-25T08:57:31;13.50;61.80
78788;DHT22;68131;52.508;5.502;2024-03-25T09:00:00;13.40;62.00
78788;DHT22;68131;52.508;5.502;2024-03-25T09:02:27;13.60;62.30
78788;DHT22;68131;52.508;5.502;2024-03-25T09:04:53;13.70;61.70
78788;DHT22;68131;52.508;5.502;2024-03-25T09:07:22;13.60;61.70
78788;DHT22;68131;52.508;5.502;2024-03-25T09:09:48;13.60;61.50
78788;DHT22;68131;52.508;5.502;2024-03-25T09:12:44;13.60;62.00
78788;DHT22;68131;52.508;5.502;2024-03-25T09:15:14;13.70;62.20
78788;DHT22;68131;52.508;5.502;2024-03-25T09:17:40;13.80;61.80
78788;DHT22;68131;52.508;5.502;2024-03-25T09:20:08;13.80;61.80
78788;DHT22;68131;52.508;5.502;2024-03-25T09:22:36;13.90;61.80
78788;DHT22;68131;52.508;5.502;2024-03-25T09:25:08;13.80;61.50
78788;DHT22;68131;52.508;5.502;2024-03-25T09:27:35;13.60;61.60
78788;DHT22;68131;52.508;5.502;2024-03-25T09:30:04;13.40;61.90
78788;DHT22;68131;52.508;5.502;2024-03-25T09:32:33;13.30;62.10
78788;DHT22;68131;52.508;5.502;2024-03-25T09:35:00;13.20;62.30
78788;DHT22;68131;52.508;5.502;2024-03-25T09:37:26;13.00;62.40
78788;DHT22;68131;52.508;5.502;2024-03-25T09:39:55;12.80;62.70
78788;DHT22;68131;52.508;5.502;2024-03-25T09:42:27;12.70;62.90
78788;DHT22;68131;52.508;5.502;2024-03-25T09:44:54;12.70;62.70
78788;DHT22;68131;52.508;5.502;2024-03-25T09:47:21;12.80;61.90
78788;DHT22;68131;52.508;5.502;2024-03-25T09:49:51;12.70;61.90
78788;DHT22;68131;52.508;5.502;2024-03-25T09:52:20;12.70;61.70
78788;DHT22;68131;52.508;5.502;2024-03-25T09:54:47;12.80;61.60
78788;DHT22;68131;52.508;5.502;2024-03-25T09:57:14;13.00;61.50
78788;DHT22;68131;52.508;5.502;2024-03-25T09:59:43;13.10;61.60
78788;DHT22;68131;52.508;5.502;2024-03-25T10:02:11;13.30;61.50
78788;DHT22;68131;52.508;5.502;2024-03-25T10:04:44;13.60;61.30
78788;DHT22;68131;52.508;5.502;2024-03-25T10:07:21;13.80;61.10
78788;DHT22;68131;52.508;5.502;2024-03-25T10:09:48;14.00;61.00
78788;DHT22;68131;52.508;5.502;2024-03-25T10:12:15;14.10;61.00
78788;DHT22;68131;52.508;5.502;2024-03-25T10:14:42;14.20;60.80
78788;DHT22;68131;52.508;5.502;2024-03-25T10:17:09;14.20;60.40
78788;DHT22;68131;52.508;5.502;2024-03-25T10:19:36;14.30;60.10
78788;DHT22;68131;52.508;5.502;2024-03-25T10:22:06;14.30;60.10
78788;DHT22;68131;52.508;5.502;2024-03-25T10:24:47;14.30;59.90
78788;DHT22;68131;52.508;5.502;2024-03-25T10:27:19;14.20;60.30
78788;DHT22;68131;52.508;5.502;2024-03-25T10:29:46;14.20;60.20
78788;DHT22;68131;52.508;5.502;2024-03-25T10:32:13;14.00;60.30
78788;DHT22;68131;52.508;5.502;2024-03-25T10:34:41;13.90;60.10
78788;DHT22;68131;52.508;5.502;2024-03-25T10:37:09;13.90;60.40
78788;DHT22;68131;52.508;5.502;2024-03-25T10:39:48;13.90;60.30
78788;DHT22;68131;52.508;5.502;2024-03-25T10:42:18;13.80;60.40
78788;DHT22;68131;52.508;5.502;2024-03-25T10:44:44;13.70;58.30
78788;DHT22;68131;52.508;5.502;2024-03-25T10:47:16;13.70;58.60
78788;DHT22;68131;52.508;5.502;2024-03-25T10:49:48;13.50;58.50
78788;DHT22;68131;52.508;5.502;2024-03-25T10:52:16;13.40;59.20
78788;DHT22;68131;52.508;5.502;2024-03-25T10:54:47;13.40;59.20
78788;DHT22;68131;52.508;5.502;2024-03-25T10:57:14;13.50;59.30
78788;DHT22;68131;52.508;5.502;2024-03-25T10:59:42;13.50;59.30
78788;DHT22;68131;52.508;5.502;2024-03-25T11:02:09;13.60;59.20
78788;DHT22;68131;52.508;5.502;2024-03-25T11:04:38;13.60;59.30
78788;DHT22;68131;52.508;5.502;2024-03-25T11:07:09;13.60;59.00
78788;DHT22;68131;52.508;5.502;2024-03-25T11:09:36;13.70;59.10
78788;DHT22;68131;52.508;5.502;2024-03-25T11:12:07;13.80;58.40
78788;DHT22;68131;52.508;5.502;2024-03-25T11:14:35;13.80;58.50
78788;DHT22;68131;52.508;5.502;2024-03-25T11:17:02;13.90;58.60
78788;DHT22;68131;52.508;5.502;2024-03-25T11:19:30;14.00;58.50
78788;DHT22;68131;52.508;5.502;2024-03-25T11:22:07;14.10;57.60
78788;DHT22;68131;52.508;5.502;2024-03-25T11:24:34;14.10;57.70
78788;DHT22;68131;52.508;5.502;2024-03-25T11:27:02;14.00;58.10
78788;DHT22;68131;52.508;5.502;2024-03-25T11:29:31;13.90;58.40
78788;DHT22;68131;52.508;5.502;2024-03-25T11:32:03;13.90;58.70
78788;DHT22;68131;52.508;5.502;2024-03-25T11:34:32;13.90;58.80
78788;DHT22;68131;52.508;5.502;2024-03-25T11:36:59;13.90;58.60
78788;DHT22;68131;52.508;5.502;2024-03-25T11:39:34;13.90;58.20
78788;DHT22;68131;52.508;5.502;2024-03-25T11:42:01;14.00;58.10
78788;DHT22;68131;52.508;5.502;2024-03-25T11:44:31;14.00;56.00
78788;DHT22;68131;52.508;5.502;2024-03-25T11:46:59;13.90;55.00
78788;DHT22;68131;52.508;5.502;2024-03-25T11:49:32;13.70;56.10
78788;DHT22;68131;52.508;5.502;2024-03-25T11:52:01;13.70;56.80
78788;DHT22;68131;52.508;5.502;2024-03-25T11:54:27;13.80;57.10
78788;DHT22;68131;52.508;5.502;2024-03-25T11:56:55;14.00;56.50
78788;DHT22;68131;52.508;5.502;2024-03-25T11:59:22;14.00;55.50
78788;DHT22;68131;52.508;5.502;2024-03-25T12:01:53;13.90;55.60
78788;DHT22;68131;52.508;5.502;2024-03-25T12:04:20;13.90;55.80
78788;DHT22;68131;52.508;5.502;2024-03-25T12:06:47;14.00;56.30
78788;DHT22;68131;52.508;5.502;2024-03-25T12:09:14;14.10;56.50
78788;DHT22;68131;52.508;5.502;2024-03-25T12:11:55;14.10;55.70
78788;DHT22;68131;52.508;5.502;2024-03-25T12:14:22;14.10;54.10
78788;DHT22;68131;52.508;5.502;2024-03-25T12:16:54;14.00;54.60
78788;DHT22;68131;52.508;5.502;2024-03-25T12:19:27;13.90;55.30
78788;DHT22;68131;52.508;5.502;2024-03-25T12:21:59;13.90;55.40
78788;DHT22;68131;52.508;5.502;2024-03-25T12:24:26;14.00;55.80
78788;DHT22;68131;52.508;5.502;2024-03-25T12:26:56;14.00;56.00
78788;DHT22;68131;52.508;5.502;2024-03-25T12:29:23;14.10;56.40
78788;DHT22;68131;52.508;5.502;2024-03-25T12:31:57;14.20;56.60
78788;DHT22;68131;52.508;5.502;2024-03-25T12:34:27;14.30;56.60
78788;DHT22;68131;52.508;5.502;2024-03-25T12:37:01;14.30;56.30
78788;DHT22;68131;52.508;5.502;2024-03-25T12:39:27;14.20;55.20
78788;DHT22;68131;52.508;5.502;2024-03-25T12:41:57;14.10;54.90
78788;DHT22;68131;52.508;5.502;2024-03-25T12:44:24;14.00;55.20
78788;DHT22;68131;52.508;5.502;2024-03-25T12:46:51;13.90;54.80
78788;DHT22;68131;52.508;5.502;2024-03-25T12:49:21;13.90;54.30
78788;DHT22;68131;52.508;5.502;2024-03-25T12:51:48;13.80;55.00
78788;DHT22;68131;52.508;5.502;2024-03-25T12:54:14;13.80;53.90
78788;DHT22;68131;52.508;5.502;2024-03-25T12:56:41;13.90;54.10
78788;DHT22;68131;52.508;5.502;2024-03-25T12:59:07;14.00;54.20
78788;DHT22;68131;52.508;5.502;2024-03-25T13:01:37;14.10;54.60
78788;DHT22;68131;52.508;5.502;2024-03-25T13:04:05;14.20;54.80
78788;DHT22;68131;52.508;5.502;2024-03-25T13:06:37;14.40;54.90
78788;DHT22;68131;52.508;5.502;2024-03-25T13:09:09;14.50;54.50
78788;DHT22;68131;52.508;5.502;2024-03-25T13:11:36;14.50;54.40
78788;DHT22;68131;52.508;5.502;2024-03-25T13:14:03;14.40;54.70
78788;DHT22;68131;52.508;5.502;2024-03-25T13:16:30;14.40;54.80
78788;DHT22;68131;52.508;5.502;2024-03-25T13:18:59;14.30;54.50
78788;DHT22;68131;52.508;5.502;2024-03-25T13:21:26;14.20;54.80
78788;DHT22;68131;52.508;5.502;2024-03-25T13:23:55;14.10;55.10
78788;DHT22;68131;52.508;5.502;2024-03-25T13:26:23;14.10;55.20
78788;DHT22;68131;52.508;5.502;2024-03-25T13:28:49;14.10;55.40
78788;DHT22;68131;52.508;5.502;2024-03-25T13:31:16;14.10;55.50
78788;DHT22;68131;52.508;5.502;2024-03-25T13:33:43;14.00;54.80
78788;DHT22;68131;52.508;5.502;2024-03-25T13:36:09;14.50;54.30
78788;DHT22;68131;52.508;5.502;2024-03-25T13:38:36;15.60;52.50
78788;DHT22;68131;52.508;5.502;2024-03-25T13:41:05;16.00;51.70
78788;DHT22;68131;52.508;5.502;2024-03-25T13:43:31;16.10;51.20
78788;DHT22;68131;52.508;5.502;2024-03-25T13:45:58;16.00;51.20
78788;DHT22;68131;52.508;5.502;2024-03-25T13:48:24;15.90;51.30
78788;DHT22;68131;52.508;5.502;2024-03-25T13:50:53;15.80;51.20
78788;DHT22;68131;52.508;5.502;2024-03-25T13:53:20;15.70;50.90
78788;DHT22;68131;52.508;5.502;2024-03-25T13:55:46;15.60;51.10
78788;DHT22;68131;52.508;5.502;2024-03-25T13:58:16;15.50;51.10
78788;DHT22;68131;52.508;5.502;2024-03-25T14:00:42;15.40;50.90
78788;DHT22;68131;52.508;5.502;2024-03-25T14:03:09;15.40;50.90
78788;DHT22;68131;52.508;5.502;2024-03-25T14:05:38;15.30;51.00
78788;DHT22;68131;52.508;5.502;2024-03-25T14:08:05;15.30;50.70
78788;DHT22;68131;52.508;5.502;2024-03-25T14:10:31;15.20;50.90
78788;DHT22;68131;52.508;5.502;2024-03-25T14:12:58;15.20;51.00
78788;DHT22;68131;52.508;5.502;2024-03-25T14:15:27;15.20;51.00
78788;DHT22;68131;52.508;5.502;2024-03-25T14:17:54;15.10;51.10
78788;DHT22;68131;52.508;5.502;2024-03-25T14:20:20;15.20;51.00
78788;DHT22;68131;52.508;5.502;2024-03-25T14:22:47;15.20;51.30
78788;DHT22;68131;52.508;5.502;2024-03-25T14:25:13;15.20;51.20
78788;DHT22;68131;52.508;5.502;2024-03-25T14:27:40;15.20;50.90
78788;DHT22;68131;52.508;5.502;2024-03-25T14:30:08;15.30;51.10
78788;DHT22;68131;52.508;5.502;2024-03-25T14:32:37;15.30;50.90
78788;DHT22;68131;52.508;5.502;2024-03-25T14:35:04;15.30;50.60
78788;DHT22;68131;52.508;5.502;2024-03-25T14:37:32;15.20;50.60
78788;DHT22;68131;52.508;5.502;2024-03-25T14:39:59;15.30;50.80
78788;DHT22;68131;52.508;5.502;2024-03-25T14:42:26;15.30;50.90
78788;DHT22;68131;52.508;5.502;2024-03-25T14:44:53;15.40;50.90
78788;DHT22;68131;52.508;5.502;2024-03-25T14:47:19;15.40;50.80
78788;DHT22;68131;52.508;5.502;2024-03-25T14:49:48;15.40;50.90
78788;DHT22;68131;52.508;5.502;2024-03-25T14:52:15;15.50;50.80
78788;DHT22;68131;52.508;5.502;2024-03-25T14:54:41;15.50;50.90
78788;DHT22;68131;52.508;5.502;2024-03-25T14:57:11;15.50;50.60
78788;DHT22;68131;52.508;5.502;2024-03-25T14:59:38;15.50;50.60
78788;DHT22;68131;52.508;5.502;2024-03-25T15:02:04;15.50;50.60
78788;DHT22;68131;52.508;5.502;2024-03-25T15:04:31;15.50;50.60
78788;DHT22;68131;52.508;5.502;2024-03-25T15:07:00;15.50;50.50
78788;DHT22;68131;52.508;5.502;2024-03-25T15:09:26;15.50;50.20
78788;DHT22;68131;52.508;5.502;2024-03-25T15:11:53;15.50;50.30
78788;DHT22;68131;52.508;5.502;2024-03-25T15:14:19;15.50;50.20
78788;DHT22;68131;52.508;5.502;2024-03-25T15:16:46;15.50;50.20
78788;DHT22;68131;52.508;5.502;2024-03-25T15:19:12;15.70;50.00
78788;DHT22;68131;52.508;5.502;2024-03-25T15:21:39;16.10;49.70
78788;DHT22;68131;52.508;5.502;2024-03-25T15:24:11;16.40;49.40
78788;DHT22;68131;52.508;5.502;2024-03-25T15:26:37;16.50;49.50
78788;DHT22;68131;52.508;5.502;2024-03-25T15:29:04;16.50;49.60
78788;DHT22;68131;52.508;5.502;2024-03-25T15:31:30;16.50;49.80
78788;DHT22;68131;52.508;5.502;2024-03-25T15:33:57;16.50;50.00
78788;DHT22;68131;52.508;5.502;2024-03-25T15:36:24;16.50;50.20
78788;DHT22;68131;52.508;5.502;2024-03-25T15:38:50;16.50;50.40
78788;DHT22;68131;52.508;5.502;2024-03-25T15:41:20;16.50;50.60